createdAt,value
2018-08-19T02:20:27.417Z,14.90
2018-08-19T02:22:58.338Z,14.80
2018-08-19T02:25:26.358Z,14.70
2018-08-19T02:27:54.127Z,14.50
2018-08-19T02:30:21.888Z,14.60
2018-08-19T02:32:50.912Z,14.60
2018-08-19T02:35:18.840Z,14.60
2018-08-19T02:37:46.612Z,14.80
2018-08-19T02:40:18.638Z,14.70
2018-08-19T02:42:46.544Z,14.60
2018-08-19T02:45:14.244Z,14.50
2018-08-19T02:47:41.955Z,14.50
2018-08-19T02:50:09.699Z,14.50
2018-08-19T02:52:40.370Z,14.50
2018-08-19T02:55:08.579Z,14.40
2018-08-19T02:57:38.876Z,14.30
2018-08-19T03:00:07.145Z,14.40
2018-08-19T03:02:36.842Z,14.50
2018-08-19T03:05:05.348Z,14.50
2018-08-19T03:07:33.220Z,14.50
2018-08-19T03:10:07.381Z,14.60
2018-08-19T03:12:35.117Z,14.40
2018-08-19T03:15:02.852Z,14.30
2018-08-19T03:17:31.492Z,14.40
2018-08-19T03:19:59.900Z,14.40
2018-08-19T03:22:28.236Z,14.40
2018-08-19T03:24:58.128Z,14.40
2018-08-19T03:27:25.984Z,14.40
2018-08-19T03:29:55.274Z,14.20
2018-08-19T03:32:23.684Z,14.10
2018-08-19T03:34:52.038Z,14.00
2018-08-19T03:37:19.802Z,14.10
2018-08-19T03:39:47.481Z,14.10
2018-08-19T03:42:16.054Z,14.20
2018-08-19T03:44:44.230Z,14.10
2018-08-19T03:47:18.202Z,14.00
2018-08-19T03:49:45.823Z,13.90
2018-08-19T03:52:14.129Z,13.90
2018-08-19T03:54:42.068Z,13.90
2018-08-19T03:57:19.489Z,13.90
2018-08-19T04:00:00.537Z,13.80
2018-08-19T04:02:29.019Z,13.80
2018-08-19T04:04:57.776Z,13.70
2018-08-19T04:07:28.857Z,13.80
2018-08-19T04:09:58.769Z,13.90
2018-08-19T04:12:27.565Z,14.00
2018-08-19T04:14:58.815Z,14.00
2018-08-19T04:17:30.118Z,13.80
2018-08-19T04:20:01.960Z,13.70
2018-08-19T04:22:37.436Z,13.70
2018-08-19T04:25:07.065Z,13.80
2018-08-19T04:27:36.904Z,13.80
2018-08-19T04:30:06.372Z,13.80
2018-08-19T04:32:36.763Z,13.70
2018-08-19T04:35:05.732Z,13.80
2018-08-19T04:37:38.878Z,13.90
2018-08-19T04:40:16.125Z,13.90
2018-08-19T04:42:46.479Z,13.80
2018-08-19T04:59:10.324Z,14.00
2018-08-19T05:01:38.515Z,14.10
2018-08-19T05:04:06.137Z,14.00
2018-08-19T05:06:33.858Z,14.20
2018-08-19T05:09:01.494Z,14.40
2018-08-19T05:11:29.132Z,14.50
2018-08-19T05:13:57.934Z,14.50
2018-08-19T05:16:26.633Z,14.60
2018-08-19T05:18:59.669Z,14.70
2018-08-19T05:21:27.489Z,14.80
2018-08-19T05:23:55.158Z,14.90
2018-08-19T05:26:22.822Z,15.00
2018-08-19T05:29:09.382Z,15.20
2018-08-19T05:31:39.566Z,15.30
2018-08-19T05:34:08.354Z,15.30
2018-08-19T05:36:38.159Z,15.60
2018-08-19T05:39:06.724Z,15.70
2018-08-19T05:41:34.325Z,15.80
2018-08-19T05:44:01.972Z,15.90
2018-08-19T05:46:29.729Z,16.10
2018-08-19T05:49:01.353Z,16.20
2018-08-19T05:51:28.942Z,16.40
2018-08-19T05:53:56.683Z,16.50
2018-08-19T05:56:24.303Z,16.60
2018-08-19T05:58:51.902Z,16.80
2018-08-19T06:01:32.133Z,16.80
2018-08-19T06:03:59.815Z,17.00
2018-08-19T06:06:27.430Z,17.20
2018-08-19T06:08:55.190Z,17.30
2018-08-19T06:11:22.866Z,17.50
2018-08-19T06:13:50.540Z,17.60
2018-08-19T06:16:18.287Z,17.70
2018-08-19T06:18:46.072Z,17.90
2018-08-19T06:21:13.729Z,18.00
2018-08-19T06:23:41.381Z,18.00
2018-08-19T06:26:09.155Z,18.30
2018-08-19T06:28:36.979Z,18.40
2018-08-19T06:31:04.723Z,18.50
2018-08-19T06:33:32.334Z,18.50
2018-08-19T06:36:00.035Z,18.60
2018-08-19T06:38:27.689Z,18.80
2018-08-19T06:40:55.395Z,19.10
2018-08-19T06:43:22.994Z,19.30
2018-08-19T06:45:50.619Z,19.60
2018-08-19T06:48:18.266Z,19.70
2018-08-19T06:50:45.914Z,20.00
2018-08-19T06:53:19.295Z,20.30
2018-08-19T06:55:46.911Z,20.30
2018-08-19T06:58:14.661Z,20.60
2018-08-19T07:00:42.244Z,20.60
2018-08-19T07:03:09.972Z,20.70
2018-08-19T07:05:37.572Z,20.80
2018-08-19T07:08:05.286Z,20.80
2018-08-19T07:10:36.919Z,21.00
2018-08-19T07:13:07.049Z,21.20
2018-08-19T07:15:35.231Z,21.50
2018-08-19T07:18:02.907Z,21.70
2018-08-19T07:20:30.528Z,21.90
2018-08-19T07:22:58.237Z,22.10
2018-08-19T07:25:25.906Z,22.20
2018-08-19T07:27:53.759Z,22.40
2018-08-19T07:30:21.361Z,22.60
2018-08-19T07:32:49.010Z,22.70
2018-08-19T07:35:16.651Z,22.80
2018-08-19T07:37:44.370Z,23.00
2018-08-19T07:40:12.053Z,23.00
2018-08-19T07:42:39.717Z,23.20
2018-08-19T07:45:07.416Z,23.40
2018-08-19T07:50:30.873Z,23.70
2018-08-19T07:52:58.560Z,23.90
2018-08-19T07:55:37.543Z,24.10
2018-08-19T07:58:05.320Z,24.20
2018-08-19T08:00:39.638Z,24.10
2018-08-19T08:03:07.301Z,24.10
2018-08-19T08:05:40.252Z,24.10
2018-08-19T08:08:08.433Z,24.40
2018-08-19T08:10:36.204Z,24.40
2018-08-19T08:13:10.736Z,24.70
2018-08-19T08:15:44.664Z,25.00
2018-08-19T08:18:12.663Z,25.20
2018-08-19T08:20:40.252Z,25.50
2018-08-19T08:23:15.472Z,25.60
2018-08-19T08:25:43.114Z,25.80
2018-08-19T08:28:10.859Z,25.70
2018-08-19T08:30:38.524Z,25.60
2018-08-19T08:33:06.129Z,25.60
2018-08-19T08:35:34.069Z,26.00
2018-08-19T08:38:01.834Z,26.00
2018-08-19T08:40:32.992Z,26.10
2018-08-19T08:43:00.622Z,26.30
2018-08-19T08:45:32.590Z,26.40
2018-08-19T08:48:00.339Z,26.60
2018-08-19T08:50:27.911Z,26.80
2018-08-19T08:52:55.546Z,27.00
2018-08-19T08:55:34.647Z,27.20
2018-08-19T08:58:02.349Z,27.30
2018-08-19T09:00:29.913Z,27.30
2018-08-19T09:02:57.649Z,27.50
2018-08-19T09:05:25.359Z,27.80
2018-08-19T09:07:53.051Z,27.90
2018-08-19T09:10:20.781Z,28.20
2018-08-19T09:12:49.625Z,28.20
2018-08-19T09:15:27.854Z,28.30
2018-08-19T09:18:02.423Z,28.20
2018-08-19T09:20:40.073Z,28.50
2018-08-19T09:23:08.018Z,28.60
2018-08-19T09:25:40.318Z,28.60
2018-08-19T09:28:08.014Z,28.70
2018-08-19T09:30:38.724Z,28.90
2018-08-19T09:33:11.690Z,29.00
2018-08-19T09:35:40.488Z,29.10
2018-08-19T09:38:11.472Z,29.20
2018-08-19T09:40:39.107Z,29.20
2018-08-19T09:43:07.521Z,29.40
2018-08-19T09:45:36.416Z,29.40
2018-08-19T09:48:04.781Z,29.60
2018-08-19T09:50:33.412Z,29.60
2018-08-19T09:53:01.019Z,29.60
2018-08-19T09:55:44.747Z,29.80
2018-08-19T09:58:13.437Z,30.00
2018-08-19T10:00:46.509Z,30.30
2018-08-19T10:03:31.260Z,30.50
2018-08-19T10:05:58.963Z,30.60
2018-08-19T10:08:26.618Z,30.70
2018-08-19T10:10:54.753Z,30.70
2018-08-19T10:13:22.483Z,30.70
2018-08-19T10:15:50.193Z,30.70
2018-08-19T10:18:17.903Z,30.20
2018-08-19T10:20:45.575Z,30.30
2018-08-19T10:23:13.326Z,30.60
2018-08-19T10:25:41.054Z,30.70
2018-08-19T10:28:08.697Z,30.60
2018-08-19T10:30:38.688Z,30.90
2018-08-19T10:33:09.322Z,31.10
2018-08-19T10:35:37.124Z,31.50
2018-08-19T10:38:05.373Z,31.60
2018-08-19T10:40:33.142Z,31.70
2018-08-19T10:43:03.174Z,31.50
2018-08-19T10:45:30.739Z,31.50
2018-08-19T10:47:58.489Z,31.40
2018-08-19T10:50:26.878Z,31.50
2018-08-19T10:52:54.510Z,31.80
2018-08-19T10:55:22.234Z,31.90
2018-08-19T10:57:49.941Z,32.00
2018-08-19T11:00:21.165Z,32.20
2018-08-19T11:47:06.098Z,33.40
2018-08-19T11:49:55.268Z,33.70
2018-08-19T11:52:23.166Z,34.10
2018-08-19T11:54:57.976Z,34.20
2018-08-19T12:00:06.814Z,34.30
2018-08-19T12:02:35.836Z,34.40
2018-08-19T12:05:03.888Z,34.60
2018-08-19T12:07:32.008Z,34.80
2018-08-19T12:10:00.484Z,34.60
2018-08-19T12:12:42.223Z,34.40
2018-08-19T12:20:45.909Z,34.60
2018-08-19T12:23:29.038Z,34.70
2018-08-19T12:25:56.873Z,34.80
2018-08-19T12:28:26.331Z,34.80
2018-08-19T14:20:17.991Z,34.80
2018-08-19T14:22:45.741Z,32.70
2018-08-19T14:25:14.118Z,32.60
2018-08-19T14:27:42.963Z,32.60
2018-08-19T14:30:11.675Z,32.70
2018-08-19T14:32:39.635Z,32.70
2018-08-19T14:35:07.314Z,32.60
2018-08-19T14:37:35.197Z,32.70
2018-08-19T14:40:03.188Z,32.60
2018-08-19T14:42:32.132Z,32.60
2018-08-19T14:45:00.469Z,32.50
2018-08-19T14:47:28.577Z,32.40
2018-08-19T14:49:57.482Z,32.40
2018-08-19T14:52:25.895Z,32.30
2018-08-19T14:54:53.586Z,32.30
2018-08-19T14:57:21.420Z,32.10
2018-08-19T14:59:49.186Z,31.90
2018-08-19T15:02:16.878Z,31.70
2018-08-19T15:04:45.361Z,31.80
2018-08-19T15:07:13.602Z,31.90
2018-08-19T15:09:45.444Z,31.90
2018-08-19T15:12:27.915Z,31.80
2018-08-19T15:15:02.432Z,31.80
2018-08-19T15:17:30.161Z,31.70
2018-08-19T15:19:58.077Z,31.70
2018-08-19T15:22:26.705Z,31.70
2018-08-19T15:24:54.535Z,31.70
2018-08-19T15:27:22.294Z,31.50
2018-08-19T15:29:51.445Z,31.50
2018-08-19T15:32:22.544Z,31.40
2018-08-19T15:34:50.257Z,31.40
2018-08-19T15:37:20.009Z,31.40
2018-08-19T15:39:47.859Z,31.20
2018-08-19T15:42:16.317Z,31.20
2018-08-19T15:44:44.097Z,31.10
2018-08-19T15:47:19.774Z,31.10
2018-08-19T15:49:47.629Z,30.90
2018-08-19T15:52:15.451Z,30.90
2018-08-19T15:54:52.173Z,30.90
2018-08-19T15:57:20.093Z,30.80
2018-08-19T15:59:58.300Z,30.80
2018-08-19T16:02:26.167Z,30.60
2018-08-19T16:04:56.388Z,30.60
2018-08-19T16:07:24.235Z,30.60
2018-08-19T16:09:52.105Z,30.60
2018-08-19T16:12:31.567Z,30.40
2018-08-19T16:14:59.578Z,30.40
2018-08-19T16:17:27.756Z,30.30
2018-08-19T16:50:29.469Z,29.70
2018-08-19T17:01:46.147Z,29.60
2018-08-19T17:04:15.751Z,29.60
2018-08-19T17:06:43.213Z,29.60
2018-08-19T17:09:22.422Z,29.60
2018-08-19T17:11:49.953Z,29.50
2018-08-19T17:14:17.588Z,29.50
2018-08-19T17:16:45.303Z,29.40
2018-08-19T17:19:14.023Z,29.40
2018-08-19T17:21:43.917Z,29.30
2018-08-19T17:24:11.684Z,29.30
2018-08-19T17:26:39.438Z,29.20
2018-08-19T17:29:12.426Z,29.10
2018-08-19T17:31:45.007Z,29.10
2018-08-19T17:34:19.705Z,29.10
2018-08-19T17:36:47.603Z,29.00
2018-08-19T17:39:23.232Z,28.90
2018-08-19T17:41:54.532Z,28.80
2018-08-19T17:44:22.522Z,28.80
2018-08-19T17:46:52.911Z,28.70
2018-08-19T17:49:27.599Z,28.70
2018-08-19T17:51:55.473Z,28.60
2018-08-19T17:54:37.135Z,28.60
2018-08-19T17:57:04.899Z,28.60
2018-08-19T17:59:32.902Z,28.50
2018-08-19T18:02:00.604Z,28.40
2018-08-19T18:04:32.933Z,28.40
2018-08-19T18:07:00.832Z,28.30
2018-08-19T18:09:28.643Z,28.20
2018-08-19T18:12:00.632Z,28.10
2018-08-19T18:14:30.440Z,28.10
2018-08-19T18:16:58.592Z,28.10
2018-08-19T18:19:26.277Z,28.00
2018-08-19T18:21:54.030Z,28.00
2018-08-19T18:24:21.960Z,27.90
2018-08-19T18:26:49.737Z,27.80
2018-08-19T18:29:17.663Z,27.80
2018-08-19T18:31:48.434Z,27.80
2018-08-19T18:34:16.611Z,27.70
2018-08-19T18:36:44.484Z,27.60
2018-08-19T18:39:12.653Z,27.50
2018-08-19T18:56:10.417Z,26.50
2018-08-19T18:58:39.871Z,26.30
2018-08-19T19:01:07.422Z,26.20
2018-08-19T19:03:40.746Z,25.90
2018-08-19T19:06:08.325Z,25.80
2018-08-19T19:08:36.006Z,25.60
2018-08-19T19:11:05.183Z,25.60
2018-08-19T19:13:33.162Z,25.50
2018-08-19T19:16:00.868Z,25.30
2018-08-19T19:18:28.497Z,25.20
2018-08-19T19:21:00.099Z,25.10
2018-08-19T19:23:34.118Z,25.00
2018-08-19T19:26:04.001Z,24.90
2018-08-19T19:28:31.845Z,24.90
2018-08-19T19:31:04.863Z,24.80
2018-08-19T19:33:32.478Z,24.80
2018-08-19T19:36:20.353Z,24.70
2018-08-19T19:38:53.502Z,24.60
2018-08-19T19:41:23.961Z,24.50
2018-08-19T19:43:51.699Z,24.50
2018-08-19T19:46:19.468Z,24.30
2018-08-19T19:48:47.380Z,24.30
2018-08-19T19:51:15.118Z,24.20
2018-08-19T19:53:42.856Z,24.10
2018-08-19T19:56:13.211Z,24.00
2018-08-19T19:58:41.714Z,24.00
2018-08-19T20:01:09.374Z,23.90
2018-08-19T20:03:42.596Z,23.80
2018-08-19T20:06:10.266Z,23.70
2018-08-19T20:08:37.902Z,23.70
2018-08-19T20:11:08.403Z,23.70
2018-08-19T20:13:36.087Z,23.70
2018-08-19T20:16:03.878Z,23.50
2018-08-19T20:18:31.775Z,23.50
2018-08-19T20:21:10.032Z,23.50
2018-08-19T20:23:37.775Z,23.40
2018-08-19T20:26:05.562Z,23.30
2018-08-19T20:28:38.762Z,23.10
2018-08-19T20:31:06.499Z,23.10
2018-08-19T20:33:34.191Z,23.10
2018-08-19T20:36:01.858Z,23.10
2018-08-19T20:38:29.446Z,22.90
2018-08-19T20:40:57.107Z,22.80
2018-08-19T20:43:25.222Z,22.70
2018-08-19T20:45:54.940Z,22.70
2018-08-19T20:48:23.011Z,22.70
2018-08-19T20:50:51.000Z,22.60
2018-08-19T20:53:19.005Z,22.60
2018-08-19T20:55:46.942Z,22.60
2018-08-19T20:58:14.613Z,22.60
2018-08-19T21:00:42.318Z,22.40
2018-08-19T21:03:11.112Z,22.30
2018-08-19T21:05:39.185Z,22.30
2018-08-19T21:08:11.841Z,22.40
2018-08-19T21:10:41.526Z,22.40
2018-08-19T21:13:10.879Z,22.30
2018-08-19T21:15:41.124Z,22.30
2018-08-19T21:18:10.905Z,22.20
2018-08-19T21:20:38.586Z,22.20
2018-08-19T21:23:06.741Z,22.10
2018-08-19T21:25:35.540Z,22.10
2018-08-19T21:28:03.275Z,22.00
2018-08-19T21:30:30.954Z,21.90
2018-08-19T21:32:58.650Z,21.80
2018-08-19T21:35:30.486Z,21.80
2018-08-19T21:37:58.190Z,21.80
2018-08-19T21:40:34.205Z,21.80
2018-08-19T21:43:02.858Z,21.70
2018-08-19T21:45:30.528Z,21.60
2018-08-19T21:47:58.250Z,21.50
2018-08-19T21:50:26.030Z,21.50
2018-08-19T21:52:59.380Z,21.40
2018-08-19T21:55:29.275Z,21.30
2018-08-19T21:57:56.973Z,21.30
2018-08-19T22:00:26.725Z,21.30
2018-08-19T22:02:59.873Z,21.30
2018-08-19T22:05:27.641Z,21.20
2018-08-19T22:07:55.322Z,21.10
2018-08-19T22:10:23.039Z,21.10
2018-08-19T22:12:50.700Z,21.00
2018-08-19T22:15:20.518Z,21.00
2018-08-19T22:17:48.258Z,21.00
2018-08-19T22:20:16.043Z,21.00
2018-08-19T22:22:43.818Z,20.90
2018-08-19T22:25:11.547Z,20.80
2018-08-19T22:27:39.423Z,20.80
2018-08-19T22:30:09.219Z,20.70
2018-08-19T22:32:37.039Z,20.80
2018-08-19T22:35:04.696Z,20.70
2018-08-19T22:37:32.383Z,20.50
2018-08-19T22:40:00.121Z,20.50
2018-08-19T22:42:27.692Z,20.40
2018-08-19T22:44:55.417Z,20.40
2018-08-19T22:47:23.192Z,20.40
2018-08-19T22:49:50.868Z,20.40
2018-08-19T22:52:19.082Z,20.40
2018-08-19T22:54:47.034Z,20.30
2018-08-19T22:57:14.874Z,20.20
2018-08-19T22:59:42.554Z,20.20
2018-08-19T23:02:10.411Z,20.30
2018-08-19T23:04:38.121Z,20.20
2018-08-19T23:07:05.902Z,20.20
2018-08-19T23:09:33.657Z,20.10
2018-08-19T23:12:01.338Z,20.10
2018-08-19T23:14:34.589Z,20.00
2018-08-19T23:17:02.293Z,20.00
2018-08-19T23:19:30.088Z,20.00
2018-08-19T23:21:57.852Z,20.00
2018-08-19T23:24:25.621Z,19.90
2018-08-19T23:26:53.348Z,19.80
2018-08-19T23:29:32.035Z,19.80
2018-08-19T23:32:00.515Z,19.70
2018-08-19T23:34:28.326Z,19.80
2018-08-19T23:36:56.089Z,19.70
2018-08-19T23:39:23.886Z,19.70
2018-08-19T23:41:51.616Z,19.70
2018-08-19T23:44:19.504Z,19.60
2018-08-19T23:46:47.206Z,19.60
2018-08-19T23:49:14.832Z,19.50
2018-08-19T23:51:47.910Z,19.50
2018-08-19T23:54:18.105Z,19.60
2018-08-19T23:56:45.850Z,19.50
2018-08-19T23:59:15.420Z,19.50
